Atkinson, NC

5:42 PM EDT on October 20, 2014 (GMT -0400)
KD4JRX HORSE BRANCH RD | Change Station
CLOSE
Current Station
Personal Weather Station
Location: WATHA, NC
Elevation: 58 ft
Nearby Weather Stations

Elev 58 ft 34.61 °N, 77.99 °W | Updated 7 seconds ago

Mostly Cloudy
Mostly Cloudy
74.5 °F
Feels Like 77 °F
N
2.2
Wind Variable Wind from SSE
Gusts 7.6 mph

Today
High -- | Low -- °F
--% Chance of Precip.
Yesterday
High -- | Low -- °F
Precip. -- in
7:22 AM 6:32 PM
Waning Crescent, 9% visible
Pressure 29.99 in
Visibility 10.0 miles
Clouds Mostly Cloudy 5000 ft
Heat Index 77 °F
Dew Point 58 °F
Humidity 56%
Rainfall 0.00 in
Snow Depth Not available.
UV 0 out of 12
Pollen 2.60 out of 12
Air Quality Not available.
Flu Activity Sporadic
METAR KEYF 202135Z AUTO 18005KT 10SM BKN050 22/12 A2999 RMK AO2 T02220122

More Conditions Fewer Conditions

Pressure 29.99 in
Visibility 10.0 miles
Clouds Mostly Cloudy 5000 ft
Heat Index 77 °F
Dew Point 58 °F
Humidity 56%
Rainfall 0.00 in
Snow Depth Not available.
UV 0 out of 12
Pollen 2.60 out of 12
Air Quality Not available.
Flu Activity Sporadic
METAR KEYF 202135Z AUTO 18005KT 10SM BKN050 22/12 A2999 RMK AO2 T02220122

More Conditions Fewer Conditions

10-Day Weather Forecast

Almanac

Astronomy

Oct. 20, 2014 Rise Set
Actual Time 7:22 AM EDT 6:32 PM EDT
Civil Twilight 6:56 AM EDT 6:57 PM EDT
Nautical Twilight 6:27 AM EDT 7:26 PM EDT
Astronomical Twilight 5:58 AM EDT 7:56 PM EDT
Moon 4:16 AM EDT 4:47 PM EDT
Length of Visible Light 12h 00m
Length of Day
11h 09m
Waning Crescent, 9% of the Moon is Illuminated
Today
Waning Crescent
Oct 23
New
Oct 30
First Quarter
Nov 6
Full
Nov 14
Last Quarter

Today's Extremes

State Highs State Lows

Community

WunderPhotos

Upload Photos

1,763,527 photos uploaded!

WunderBlogs® & News

Nearby

Snow Depth

Station Depth Elevation
No new snow has been reported.

Earthquake Activity

City Distance Mag. Time & Date
No recent earthquake activity has been reported nearby.
Minimum magnitude displayed is 2.5.

Coastal Water Temperatures

Place Temperature
No Stations Reporting

Nearby Weather Stations